createdAt,value
2019-03-28T00:01:19.093Z,89
2019-03-28T00:04:19.145Z,89
2019-03-28T00:07:19.185Z,89
2019-03-28T00:10:19.362Z,89
2019-03-28T00:13:19.310Z,89
2019-03-28T00:16:19.455Z,89
2019-03-28T00:19:19.393Z,89
2019-03-28T00:22:19.448Z,90
2019-03-28T00:25:19.446Z,90
2019-03-28T00:28:19.530Z,90
2019-03-28T00:31:19.585Z,90
2019-03-28T00:34:19.631Z,90
2019-03-28T00:37:19.672Z,90
2019-03-28T00:40:19.914Z,91
2019-03-28T00:43:19.997Z,91
2019-03-28T00:46:19.828Z,91
2019-03-28T00:49:20.302Z,91
2019-03-28T00:52:19.911Z,91
2019-03-28T00:55:20.257Z,92
2019-03-28T00:58:20.046Z,92
2019-03-28T01:01:20.084Z,92
2019-03-28T01:04:20.129Z,92
2019-03-28T01:07:20.181Z,92
2019-03-28T01:10:20.237Z,92
2019-03-28T01:13:20.215Z,92
2019-03-28T01:16:20.414Z,92
2019-03-28T01:19:20.806Z,92
2019-03-28T01:22:20.398Z,93
2019-03-28T01:25:20.488Z,93
2019-03-28T01:28:20.525Z,93
2019-03-28T01:31:20.680Z,93
2019-03-28T01:34:20.677Z,93
2019-03-28T01:37:20.654Z,93
2019-03-28T01:40:20.673Z,93
2019-03-28T01:43:20.719Z,93
2019-03-28T01:46:20.899Z,93
2019-03-28T01:49:20.867Z,93
2019-03-28T01:52:21.377Z,93
2019-03-28T01:55:21.227Z,93
2019-03-28T01:58:20.999Z,93
2019-03-28T02:01:20.990Z,93
2019-03-28T02:04:21.057Z,94
2019-03-28T02:07:21.126Z,93
2019-03-28T02:10:21.279Z,94
2019-03-28T02:13:22.228Z,94
2019-03-28T02:16:21.479Z,94
2019-03-28T02:19:21.308Z,94
2019-03-28T02:22:21.377Z,94
2019-03-28T02:25:21.516Z,94
2019-03-28T02:28:21.406Z,94
2019-03-28T02:31:21.524Z,94
2019-03-28T02:34:21.701Z,94
2019-03-28T02:37:21.612Z,94
2019-03-28T02:40:21.801Z,94
2019-03-28T02:43:21.673Z,94
2019-03-28T02:46:22.602Z,94
2019-03-28T02:49:21.794Z,95
2019-03-28T02:52:21.884Z,95
2019-03-28T02:55:21.849Z,95
2019-03-28T02:58:21.885Z,95
2019-03-28T03:01:22.002Z,94
2019-03-28T03:04:22.054Z,95
2019-03-28T03:07:22.106Z,95
2019-03-28T03:10:22.090Z,95
2019-03-28T03:13:22.190Z,95
2019-03-28T03:16:22.792Z,95
2019-03-28T03:19:22.353Z,95
2019-03-28T03:22:22.434Z,95
2019-03-28T03:25:22.337Z,95
2019-03-28T03:28:22.426Z,95
2019-03-28T03:31:23.883Z,95
2019-03-28T03:34:22.502Z,95
2019-03-28T03:37:22.552Z,95
2019-03-28T03:40:22.584Z,96
2019-03-28T03:43:23.164Z,95
2019-03-28T03:46:22.726Z,95
2019-03-28T03:49:23.112Z,95
2019-03-28T03:52:22.818Z,95
2019-03-28T03:58:22.845Z,96
2019-03-28T04:01:22.894Z,96
2019-03-28T04:04:22.947Z,96
2019-03-28T04:07:22.975Z,96
2019-03-28T04:10:23.024Z,96
2019-03-28T04:13:23.165Z,96
2019-03-28T04:16:23.103Z,96
2019-03-28T04:19:23.165Z,97
2019-03-28T04:22:23.229Z,97
2019-03-28T04:25:23.245Z,97
2019-03-28T04:28:31.602Z,97
2019-03-28T04:31:23.336Z,97
2019-03-28T04:34:23.429Z,97
2019-03-28T04:37:23.438Z,97
2019-03-28T04:40:23.495Z,97
2019-03-28T04:43:23.567Z,97
2019-03-28T04:46:23.597Z,97
2019-03-28T04:49:23.637Z,97
2019-03-28T04:52:23.666Z,97
2019-03-28T04:55:23.845Z,97
2019-03-28T04:58:23.798Z,97
2019-03-28T05:01:23.809Z,97
2019-03-28T05:04:23.868Z,97
2019-03-28T05:07:24.016Z,97
2019-03-28T05:10:23.941Z,97
2019-03-28T05:13:24.453Z,97
2019-03-28T05:16:24.057Z,97
2019-03-28T05:19:24.086Z,97
2019-03-28T05:22:24.155Z,97
2019-03-28T05:25:24.375Z,97
2019-03-28T05:28:25.476Z,97
2019-03-28T05:31:24.298Z,97
2019-03-28T05:55:24.678Z,97
2019-03-28T05:58:24.802Z,97
2019-03-28T06:01:24.745Z,97
2019-03-28T06:04:24.785Z,97
2019-03-28T06:07:24.844Z,97
2019-03-28T06:10:24.903Z,96
2019-03-28T06:13:24.945Z,96
2019-03-28T06:16:25.084Z,96
2019-03-28T06:19:25.132Z,96
2019-03-28T06:49:25.586Z,89
2019-03-28T06:52:25.642Z,88
2019-03-28T06:55:25.918Z,87
2019-03-28T06:58:25.751Z,86
2019-03-28T07:01:25.800Z,85
2019-03-28T07:04:25.865Z,84
2019-03-28T07:07:26.024Z,84
2019-03-28T07:10:25.959Z,84
2019-03-28T07:13:26.014Z,83
2019-03-28T07:16:26.071Z,83
2019-03-28T07:19:26.151Z,82
2019-03-28T07:22:26.157Z,81
2019-03-28T07:25:26.265Z,80
2019-03-28T07:28:26.297Z,78
2019-03-28T07:31:26.342Z,75
2019-03-28T07:34:26.434Z,62
2019-03-28T07:37:28.126Z,57
2019-03-28T07:40:26.563Z,51
2019-03-28T07:43:26.845Z,48
2019-03-28T07:46:26.721Z,47
2019-03-28T07:49:26.928Z,45
2019-03-28T07:52:27.547Z,42
2019-03-28T07:55:26.965Z,41
2019-03-28T07:58:27.018Z,41
2019-03-28T08:01:27.226Z,41
2019-03-28T08:04:27.197Z,37
2019-03-28T08:07:27.394Z,36
2019-03-28T08:10:27.372Z,34
2019-03-28T08:13:27.424Z,34
2019-03-28T08:16:28.982Z,39
2019-03-28T08:19:27.651Z,38
2019-03-28T08:22:29.744Z,37
2019-03-28T08:25:28.217Z,37
2019-03-28T08:28:27.860Z,33
2019-03-28T08:31:27.986Z,32
2019-03-28T08:34:31.143Z,31
2019-03-28T08:37:28.163Z,31
2019-03-28T08:40:28.242Z,28
2019-03-28T08:43:28.327Z,26
2019-03-28T08:46:28.426Z,27
2019-03-28T08:49:28.556Z,29
2019-03-28T08:52:28.606Z,26
2019-03-28T08:55:29.156Z,28
2019-03-28T08:58:28.765Z,26
2019-03-28T09:01:28.874Z,28
2019-03-28T09:04:29.085Z,28
2019-03-28T09:07:29.077Z,27
2019-03-28T09:10:29.174Z,26
2019-03-28T09:13:29.235Z,25
2019-03-28T09:16:29.338Z,27
2019-03-28T09:19:29.448Z,24
2019-03-28T09:22:29.498Z,22
2019-03-28T09:25:29.598Z,25
2019-03-28T09:28:29.814Z,23
2019-03-28T09:31:30.198Z,23
2019-03-28T09:34:29.901Z,29
2019-03-28T09:37:29.968Z,23
2019-03-28T09:40:30.205Z,27
2019-03-28T09:43:30.156Z,25
2019-03-28T09:46:30.332Z,24
2019-03-28T09:49:30.330Z,23
2019-03-28T09:52:30.432Z,22
2019-03-28T09:55:30.530Z,25
2019-03-28T09:58:30.592Z,24
2019-03-28T10:01:30.709Z,22
2019-03-28T10:04:30.797Z,23
2019-03-28T10:07:30.905Z,27
2019-03-28T10:10:31.083Z,27
2019-03-28T10:13:31.156Z,24
2019-03-28T10:16:31.150Z,26
2019-03-28T10:19:31.254Z,24
2019-03-28T10:22:31.317Z,28
2019-03-28T10:25:31.547Z,23
2019-03-28T10:28:31.512Z,24
2019-03-28T10:31:31.607Z,24
2019-03-28T10:34:32.163Z,26
2019-03-28T10:37:31.807Z,26
2019-03-28T10:40:31.888Z,23
2019-03-28T10:43:31.981Z,21
2019-03-28T10:46:32.067Z,27
2019-03-28T10:49:32.353Z,24
2019-03-28T10:52:32.370Z,22
2019-03-28T10:55:32.367Z,25
2019-03-28T10:58:34.957Z,24
2019-03-28T11:01:47.452Z,22
2019-03-28T11:04:32.666Z,22
2019-03-28T11:07:32.742Z,23
2019-03-28T11:10:32.837Z,21
2019-03-28T11:13:32.930Z,18
2019-03-28T11:16:33.025Z,21
2019-03-28T11:19:33.136Z,19
2019-03-28T11:22:33.229Z,20
2019-03-28T11:25:33.417Z,20
2019-03-28T11:28:33.425Z,19
2019-03-28T11:31:45.747Z,18
2019-03-28T11:34:34.061Z,21
2019-03-28T11:37:33.707Z,20
2019-03-28T11:40:33.817Z,20
2019-03-28T11:43:33.891Z,20
2019-03-28T11:46:34.089Z,31
2019-03-28T11:49:34.091Z,29
2019-03-28T11:52:34.192Z,24
2019-03-28T11:55:34.268Z,29
2019-03-28T11:58:34.340Z,25
2019-03-28T12:01:34.420Z,32
2019-03-28T12:04:34.778Z,32
2019-03-28T12:07:34.604Z,26
2019-03-28T12:10:34.697Z,25
2019-03-28T12:13:44.713Z,28
2019-03-28T12:16:34.863Z,30
2019-03-28T12:19:34.979Z,33
2019-03-28T12:22:35.012Z,33
2019-03-28T12:25:35.103Z,36
2019-03-28T12:28:35.291Z,36
2019-03-28T12:31:35.256Z,35
2019-03-28T12:34:35.453Z,37
2019-03-28T12:37:36.707Z,39
2019-03-28T12:40:35.480Z,40
2019-03-28T12:43:35.545Z,39
2019-03-28T12:46:35.632Z,39
2019-03-28T12:49:35.715Z,39
2019-03-28T12:52:35.992Z,38
2019-03-28T12:55:35.849Z,39
2019-03-28T12:58:35.924Z,39
2019-03-28T13:01:35.986Z,40
2019-03-28T13:04:36.100Z,39
2019-03-28T13:07:36.187Z,41
2019-03-28T13:10:36.227Z,41
2019-03-28T13:13:36.508Z,39
2019-03-28T13:16:36.490Z,41
2019-03-28T13:19:36.596Z,41
2019-03-28T13:22:36.552Z,42
2019-03-28T13:25:36.600Z,43
2019-03-28T13:28:36.803Z,41
2019-03-28T13:31:36.762Z,40
2019-03-28T13:34:36.844Z,41
2019-03-28T13:37:37.339Z,43
2019-03-28T13:40:36.991Z,41
2019-03-28T13:43:37.052Z,44
2019-03-28T13:46:37.125Z,43
2019-03-28T13:49:37.226Z,44
2019-03-28T13:52:37.286Z,44
2019-03-28T13:55:37.357Z,43
2019-03-28T13:58:37.558Z,44
2019-03-28T14:01:37.498Z,40
2019-03-28T14:04:37.686Z,34
2019-03-28T14:07:37.671Z,28
2019-03-28T14:10:37.760Z,33
2019-03-28T14:13:37.836Z,33
2019-03-28T14:16:37.933Z,34
2019-03-28T14:19:38.042Z,38
2019-03-28T14:22:38.102Z,38
2019-03-28T14:25:38.179Z,36
2019-03-28T14:28:38.255Z,41
2019-03-28T14:31:38.340Z,42
2019-03-28T14:37:40.738Z,43
2019-03-28T14:40:38.562Z,45
2019-03-28T14:43:38.616Z,45
2019-03-28T14:46:39.140Z,46
2019-03-28T14:49:38.867Z,47
2019-03-28T14:52:38.852Z,47
2019-03-28T14:55:38.910Z,49
2019-03-28T14:58:38.999Z,49
2019-03-28T15:01:39.046Z,49
2019-03-28T15:04:39.128Z,50
2019-03-28T15:07:39.213Z,51
2019-03-28T15:10:39.256Z,52
2019-03-28T15:13:40.605Z,51
2019-03-28T15:16:39.400Z,52
2019-03-28T15:19:39.478Z,53
2019-03-28T15:22:39.538Z,52
2019-03-28T15:25:39.617Z,52
2019-03-28T15:28:39.772Z,52
2019-03-28T15:31:39.960Z,53
2019-03-28T15:34:39.838Z,52
2019-03-28T15:37:39.897Z,51
2019-03-28T15:40:40.059Z,52
2019-03-28T15:43:40.023Z,52
2019-03-28T15:46:40.096Z,52
2019-03-28T15:49:40.142Z,52
2019-03-28T15:52:40.257Z,52
2019-03-28T15:55:40.311Z,51
2019-03-28T15:58:40.467Z,51
2019-03-28T16:01:40.442Z,51
2019-03-28T16:04:40.516Z,52
2019-03-28T16:07:40.776Z,52
2019-03-28T16:19:40.822Z,54
2019-03-28T16:22:40.878Z,54
2019-03-28T16:25:40.951Z,55
2019-03-28T16:28:41.075Z,55
2019-03-28T16:31:41.295Z,55
2019-03-28T16:34:43.523Z,55
2019-03-28T16:43:41.434Z,56
2019-03-28T16:49:41.477Z,57
2019-03-28T16:52:41.564Z,57
2019-03-28T17:13:42.017Z,63
2019-03-28T17:25:42.287Z,65
2019-03-28T17:28:42.375Z,65
2019-03-28T17:31:42.389Z,65
2019-03-28T17:34:45.756Z,66
2019-03-28T17:37:42.646Z,66
2019-03-28T17:40:42.602Z,67
2019-03-28T17:43:42.775Z,67
2019-03-28T17:46:42.846Z,68
2019-03-28T17:49:42.756Z,69
2019-03-28T17:52:42.850Z,69
2019-03-28T17:55:43.018Z,70
2019-03-28T17:58:42.978Z,71
2019-03-28T18:01:43.013Z,71
2019-03-28T18:04:48.216Z,72
2019-03-28T18:07:43.592Z,73
2019-03-28T18:10:43.299Z,73
2019-03-28T18:13:43.258Z,74
2019-03-28T18:16:43.348Z,74
2019-03-28T18:19:43.382Z,75
2019-03-28T18:22:43.434Z,75
2019-03-28T18:25:43.514Z,76
2019-03-28T18:28:43.579Z,76
2019-03-28T18:31:50.391Z,76
2019-03-28T18:34:43.818Z,77
2019-03-28T18:37:44.776Z,77
2019-03-28T18:40:43.848Z,77
2019-03-28T18:43:43.896Z,77
2019-03-28T18:46:43.919Z,77
2019-03-28T18:49:44.048Z,77
2019-03-28T18:52:44.107Z,77
2019-03-28T18:55:44.117Z,77
2019-03-28T18:58:44.338Z,77
2019-03-28T19:01:44.284Z,77
2019-03-28T19:07:44.764Z,76
2019-03-28T19:13:44.507Z,76
2019-03-28T19:19:44.599Z,75
2019-03-28T19:22:44.717Z,75
2019-03-28T19:25:46.849Z,74
2019-03-28T19:28:44.945Z,74
2019-03-28T19:31:44.889Z,74
2019-03-28T19:34:44.907Z,74
2019-03-28T19:37:44.990Z,74
2019-03-28T19:40:45.031Z,74
2019-03-28T19:43:45.117Z,75
2019-03-28T19:46:45.205Z,75
2019-03-28T19:52:45.681Z,75
2019-03-28T19:55:45.455Z,76
2019-03-28T19:58:45.557Z,76
2019-03-28T20:01:45.454Z,76
2019-03-28T20:04:46.778Z,76
2019-03-28T20:07:45.992Z,76
2019-03-28T20:13:45.769Z,75
2019-03-28T20:16:45.763Z,76
2019-03-28T20:22:46.012Z,75
2019-03-28T20:28:46.175Z,76
2019-03-28T20:31:46.129Z,75
2019-03-28T20:34:48.931Z,76
2019-03-28T20:37:46.214Z,75
2019-03-28T20:40:46.258Z,76
2019-03-28T20:43:46.337Z,76
2019-03-28T20:46:46.453Z,75
2019-03-28T20:49:46.930Z,76
2019-03-28T20:52:46.489Z,76
2019-03-28T20:55:46.560Z,76
2019-03-28T20:58:46.697Z,77
2019-03-28T21:01:46.702Z,76
2019-03-28T21:04:46.855Z,77
2019-03-28T21:07:46.805Z,77
2019-03-28T21:10:46.876Z,76
2019-03-28T21:13:47.009Z,76
2019-03-28T21:16:47.029Z,77
2019-03-28T21:19:47.107Z,77
2019-03-28T21:22:47.284Z,77
2019-03-28T21:25:47.356Z,77
2019-03-28T21:28:47.783Z,77
2019-03-28T21:31:50.140Z,78
2019-03-28T21:34:47.360Z,78
2019-03-28T21:37:47.641Z,78
2019-03-28T21:40:47.518Z,78
2019-03-28T21:46:47.693Z,78
2019-03-28T21:49:47.707Z,78
2019-03-28T21:52:47.711Z,78
2019-03-28T21:55:55.138Z,78
2019-03-28T21:58:47.881Z,78
2019-03-28T22:01:47.955Z,78
2019-03-28T22:04:48.013Z,78
2019-03-28T22:07:48.081Z,78
2019-03-28T22:10:48.233Z,78
2019-03-28T22:13:48.170Z,79
2019-03-28T22:19:48.277Z,77
2019-03-28T22:22:48.316Z,78
2019-03-28T22:25:48.381Z,78
2019-03-28T22:28:48.603Z,77
2019-03-28T22:31:48.521Z,78
2019-03-28T22:34:48.691Z,78
2019-03-28T22:37:48.632Z,78
2019-03-28T22:40:48.714Z,79
2019-03-28T22:43:48.873Z,78
2019-03-28T22:46:48.863Z,79
2019-03-28T22:49:48.906Z,79
2019-03-28T22:52:49.039Z,79
2019-03-28T22:55:49.165Z,80
2019-03-28T22:58:49.113Z,80
2019-03-28T23:01:49.282Z,81
2019-03-28T23:04:49.330Z,82
2019-03-28T23:07:49.241Z,82
2019-03-28T23:10:49.385Z,83
2019-03-28T23:13:49.387Z,83
2019-03-28T23:16:49.592Z,83
2019-03-28T23:19:49.477Z,83
2019-03-28T23:22:49.555Z,84
2019-03-28T23:25:49.653Z,84
2019-03-28T23:28:49.843Z,84
2019-03-28T23:31:50.812Z,85
2019-03-28T23:34:49.820Z,86
2019-03-28T23:37:50.309Z,86
2019-03-28T23:40:49.955Z,86
2019-03-28T23:43:49.996Z,87
2019-03-28T23:46:50.059Z,87
2019-03-28T23:49:50.132Z,87
2019-03-28T23:52:50.168Z,87
2019-03-28T23:55:50.680Z,88
2019-03-28T23:58:50.231Z,88
